sensor_id;sensor_type;location;lat;lon;timestamp;temperature;humidity
63899;HTU21D;50070;-32.946;-60.652;2024-01-11T00:00:29;29.14;70.23
63899;HTU21D;50070;-32.946;-60.652;2024-01-11T00:02:56;29.03;69.14
63899;HTU21D;50070;-32.946;-60.652;2024-01-11T00:05:23;29.12;68.48
63899;HTU21D;50070;-32.946;-60.652;2024-01-11T00:07:50;29.35;66.18
63899;HTU21D;50070;-32.946;-60.652;2024-01-11T00:10:17;29.41;66.00
63899;HTU21D;50070;-32.946;-60.652;2024-01-11T00:12:44;29.53;65.04
63899;HTU21D;50070;-32.946;-60.652;2024-01-11T00:15:11;29.31;65.69
63899;HTU21D;50070;-32.946;-60.652;2024-01-11T00:17:38;29.08;67.53
63899;HTU21D;50070;-32.946;-60.652;2024-01-11T00:20:05;29.14;66.59
63899;HTU21D;50070;-32.946;-60.652;2024-01-11T00:22:32;28.84;68.39
63899;HTU21D;50070;-32.946;-60.652;2024-01-11T00:24:59;28.54;70.43
63899;HTU21D;50070;-32.946;-60.652;2024-01-11T00:27:26;28.63;70.52
63899;HTU21D;50070;-32.946;-60.652;2024-01-11T00:29:53;28.85;69.39
63899;HTU21D;50070;-32.946;-60.652;2024-01-11T00:32:21;28.76;70.66
63899;HTU21D;50070;-32.946;-60.652;2024-01-11T00:34:49;28.50;71.29
63899;HTU21D;50070;-32.946;-60.652;2024-01-11T00:37:16;28.34;73.01
63899;HTU21D;50070;-32.946;-60.652;2024-01-11T00:39:43;28.32;73.43
63899;HTU21D;50070;-32.946;-60.652;2024-01-11T00:42:10;28.49;72.35
63899;HTU21D;50070;-32.946;-60.652;2024-01-11T00:44:36;28.48;71.40
63899;HTU21D;50070;-32.946;-60.652;2024-01-11T00:47:03;28.53;71.13
63899;HTU21D;50070;-32.946;-60.652;2024-01-11T00:49:30;28.46;69.87
63899;HTU21D;50070;-32.946;-60.652;2024-01-11T00:51:57;28.56;69.54
63899;HTU21D;50070;-32.946;-60.652;2024-01-11T00:54:24;28.61;69.21
63899;HTU21D;50070;-32.946;-60.652;2024-01-11T00:56:51;28.53;69.20
63899;HTU21D;50070;-32.946;-60.652;2024-01-11T00:59:17;28.52;69.01
63899;HTU21D;50070;-32.946;-60.652;2024-01-11T01:01:47;28.52;69.13
63899;HTU21D;50070;-32.946;-60.652;2024-01-11T01:04:14;28.59;68.68
63899;HTU21D;50070;-32.946;-60.652;2024-01-11T01:06:42;28.63;68.25
63899;HTU21D;50070;-32.946;-60.652;2024-01-11T01:09:09;28.74;68.07
63899;HTU21D;50070;-32.946;-60.652;2024-01-11T01:11:36;28.83;67.83
63899;HTU21D;50070;-32.946;-60.652;2024-01-11T01:14:03;28.87;67.18
63899;HTU21D;50070;-32.946;-60.652;2024-01-11T01:16:30;28.95;66.91
63899;HTU21D;50070;-32.946;-60.652;2024-01-11T01:18:56;28.87;67.71
63899;HTU21D;50070;-32.946;-60.652;2024-01-11T01:21:23;28.86;67.44
63899;HTU21D;50070;-32.946;-60.652;2024-01-11T01:23:49;28.77;68.33
63899;HTU21D;50070;-32.946;-60.652;2024-01-11T01:26:16;28.60;68.82
63899;HTU21D;50070;-32.946;-60.652;2024-01-11T01:28:43;28.68;69.07
63899;HTU21D;50070;-32.946;-60.652;2024-01-11T01:31:10;28.73;68.78
63899;HTU21D;50070;-32.946;-60.652;2024-01-11T01:33:37;29.00;67.58
63899;HTU21D;50070;-32.946;-60.652;2024-01-11T01:36:03;28.79;68.63
63899;HTU21D;50070;-32.946;-60.652;2024-01-11T01:38:30;28.65;69.40
63899;HTU21D;50070;-32.946;-60.652;2024-01-11T01:40:56;28.79;69.27
63899;HTU21D;50070;-32.946;-60.652;2024-01-11T01:43:23;28.76;69.61
63899;HTU21D;50070;-32.946;-60.652;2024-01-11T01:45:50;28.75;69.77
63899;HTU21D;50070;-32.946;-60.652;2024-01-11T01:48:17;28.73;69.90
63899;HTU21D;50070;-32.946;-60.652;2024-01-11T01:50:44;28.71;70.22
63899;HTU21D;50070;-32.946;-60.652;2024-01-11T01:53:20;28.92;69.20
63899;HTU21D;50070;-32.946;-60.652;2024-01-11T01:55:48;28.73;70.50
63899;HTU21D;50070;-32.946;-60.652;2024-01-11T01:58:17;28.54;72.24
63899;HTU21D;50070;-32.946;-60.652;2024-01-11T02:00:46;28.56;72.15
63899;HTU21D;50070;-32.946;-60.652;2024-01-11T02:03:15;28.63;71.77
63899;HTU21D;50070;-32.946;-60.652;2024-01-11T02:05:42;28.54;72.74
63899;HTU21D;50070;-32.946;-60.652;2024-01-11T02:08:15;28.61;72.67
63899;HTU21D;50070;-32.946;-60.652;2024-01-11T02:10:43;28.39;73.71
63899;HTU21D;50070;-32.946;-60.652;2024-01-11T02:13:11;28.29;74.43
63899;HTU21D;50070;-32.946;-60.652;2024-01-11T02:15:39;28.46;73.79
63899;HTU21D;50070;-32.946;-60.652;2024-01-11T02:18:06;28.47;73.24
63899;HTU21D;50070;-32.946;-60.652;2024-01-11T02:20:33;28.41;73.75
63899;HTU21D;50070;-32.946;-60.652;2024-01-11T02:23:05;28.35;73.86
63899;HTU21D;50070;-32.946;-60.652;2024-01-11T02:25:32;28.14;74.47
63899;HTU21D;50070;-32.946;-60.652;2024-01-11T02:27:59;28.24;74.03
63899;HTU21D;50070;-32.946;-60.652;2024-01-11T02:30:26;28.46;73.16
63899;HTU21D;50070;-32.946;-60.652;2024-01-11T02:32:53;28.27;74.00
63899;HTU21D;50070;-32.946;-60.652;2024-01-11T02:35:20;28.14;74.78
63899;HTU21D;50070;-32.946;-60.652;2024-01-11T02:37:48;27.97;76.02
63899;HTU21D;50070;-32.946;-60.652;2024-01-11T02:40:14;28.16;75.18
63899;HTU21D;50070;-32.946;-60.652;2024-01-11T02:42:41;28.24;74.44
63899;HTU21D;50070;-32.946;-60.652;2024-01-11T02:45:08;28.21;74.16
63899;HTU21D;50070;-32.946;-60.652;2024-01-11T02:47:36;28.15;74.45
63899;HTU21D;50070;-32.946;-60.652;2024-01-11T02:50:03;28.04;74.83
63899;HTU21D;50070;-32.946;-60.652;2024-01-11T02:52:30;28.11;73.93
63899;HTU21D;50070;-32.946;-60.652;2024-01-11T02:54:57;27.91;74.57
63899;HTU21D;50070;-32.946;-60.652;2024-01-11T02:57:24;28.23;72.87
63899;HTU21D;50070;-32.946;-60.652;2024-01-11T02:59:51;28.29;72.89
63899;HTU21D;50070;-32.946;-60.652;2024-01-11T03:02:18;28.39;71.77
63899;HTU21D;50070;-32.946;-60.652;2024-01-11T03:04:45;28.52;71.01
63899;HTU21D;50070;-32.946;-60.652;2024-01-11T03:07:12;28.48;71.38
63899;HTU21D;50070;-32.946;-60.652;2024-01-11T03:09:38;28.56;70.61
63899;HTU21D;50070;-32.946;-60.652;2024-01-11T03:12:05;28.25;72.12
63899;HTU21D;50070;-32.946;-60.652;2024-01-11T03:14:32;28.08;72.66
63899;HTU21D;50070;-32.946;-60.652;2024-01-11T03:16:59;28.18;71.91
63899;HTU21D;50070;-32.946;-60.652;2024-01-11T03:19:26;27.90;74.09
63899;HTU21D;50070;-32.946;-60.652;2024-01-11T03:21:53;27.87;74.74
63899;HTU21D;50070;-32.946;-60.652;2024-01-11T03:24:20;27.57;78.66
63899;HTU21D;50070;-32.946;-60.652;2024-01-11T03:26:48;27.56;80.75
63899;HTU21D;50070;-32.946;-60.652;2024-01-11T03:29:15;27.55;79.26
63899;HTU21D;50070;-32.946;-60.652;2024-01-11T03:31:41;27.57;76.49
63899;HTU21D;50070;-32.946;-60.652;2024-01-11T03:34:10;27.64;75.88
63899;HTU21D;50070;-32.946;-60.652;2024-01-11T03:36:37;27.94;73.77
63899;HTU21D;50070;-32.946;-60.652;2024-01-11T03:39:04;27.87;74.30
63899;HTU21D;50070;-32.946;-60.652;2024-01-11T03:41:31;28.04;73.48
63899;HTU21D;50070;-32.946;-60.652;2024-01-11T03:43:58;28.02;72.12
63899;HTU21D;50070;-32.946;-60.652;2024-01-11T03:46:25;28.05;72.10
63899;HTU21D;50070;-32.946;-60.652;2024-01-11T03:48:51;27.98;73.82
63899;HTU21D;50070;-32.946;-60.652;2024-01-11T03:51:18;27.73;75.85
63899;HTU21D;50070;-32.946;-60.652;2024-01-11T03:53:45;27.78;75.74
63899;HTU21D;50070;-32.946;-60.652;2024-01-11T03:56:12;27.88;75.09
63899;HTU21D;50070;-32.946;-60.652;2024-01-11T03:58:39;28.20;73.85
63899;HTU21D;50070;-32.946;-60.652;2024-01-11T04:01:07;28.20;72.45
63899;HTU21D;50070;-32.946;-60.652;2024-01-11T04:03:36;27.95;74.25
63899;HTU21D;50070;-32.946;-60.652;2024-01-11T04:06:04;28.01;73.52
63899;HTU21D;50070;-32.946;-60.652;2024-01-11T04:08:31;28.16;72.53
63899;HTU21D;50070;-32.946;-60.652;2024-01-11T04:10:57;27.83;75.34
63899;HTU21D;50070;-32.946;-60.652;2024-01-11T04:13:24;27.65;76.59
63899;HTU21D;50070;-32.946;-60.652;2024-01-11T04:15:51;27.57;77.00
63899;HTU21D;50070;-32.946;-60.652;2024-01-11T04:18:18;27.51;77.38
63899;HTU21D;50070;-32.946;-60.652;2024-01-11T04:20:45;27.56;76.63
63899;HTU21D;50070;-32.946;-60.652;2024-01-11T04:23:11;27.61;76.57
63899;HTU21D;50070;-32.946;-60.652;2024-01-11T04:25:38;27.34;78.79
63899;HTU21D;50070;-32.946;-60.652;2024-01-11T04:28:05;27.44;78.57
63899;HTU21D;50070;-32.946;-60.652;2024-01-11T04:30:32;27.34;78.36
63899;HTU21D;50070;-32.946;-60.652;2024-01-11T04:32:59;27.57;76.99
63899;HTU21D;50070;-32.946;-60.652;2024-01-11T04:35:26;27.40;78.92
63899;HTU21D;50070;-32.946;-60.652;2024-01-11T04:37:52;27.25;80.91
63899;HTU21D;50070;-32.946;-60.652;2024-01-11T04:40:19;27.46;80.25
63899;HTU21D;50070;-32.946;-60.652;2024-01-11T04:42:46;27.01;82.54
63899;HTU21D;50070;-32.946;-60.652;2024-01-11T04:45:13;27.08;82.70
63899;HTU21D;50070;-32.946;-60.652;2024-01-11T04:47:39;27.13;82.38
63899;HTU21D;50070;-32.946;-60.652;2024-01-11T04:50:07;27.02;83.21
63899;HTU21D;50070;-32.946;-60.652;2024-01-11T04:52:34;26.71;85.31
63899;HTU21D;50070;-32.946;-60.652;2024-01-11T04:55:01;26.90;84.97
63899;HTU21D;50070;-32.946;-60.652;2024-01-11T04:57:28;26.69;86.19
63899;HTU21D;50070;-32.946;-60.652;2024-01-11T04:59:55;26.76;86.10
63899;HTU21D;50070;-32.946;-60.652;2024-01-11T05:02:22;26.69;86.73
63899;HTU21D;50070;-32.946;-60.652;2024-01-11T05:04:49;26.27;89.70
63899;HTU21D;50070;-32.946;-60.652;2024-01-11T05:07:15;26.25;90.18
63899;HTU21D;50070;-32.946;-60.652;2024-01-11T05:09:42;26.23;90.68
63899;HTU21D;50070;-32.946;-60.652;2024-01-11T05:12:09;26.36;90.30
63899;HTU21D;50070;-32.946;-60.652;2024-01-11T05:14:36;26.25;91.02
63899;HTU21D;50070;-32.946;-60.652;2024-01-11T05:17:03;26.23;92.19
63899;HTU21D;50070;-32.946;-60.652;2024-01-11T05:19:30;26.16;93.18
63899;HTU21D;50070;-32.946;-60.652;2024-01-11T05:21:56;26.13;93.49
63899;HTU21D;50070;-32.946;-60.652;2024-01-11T05:24:23;26.22;93.82
63899;HTU21D;50070;-32.946;-60.652;2024-01-11T05:26:50;25.93;96.97
63899;HTU21D;50070;-32.946;-60.652;2024-01-11T05:29:17;25.71;98.98
63899;HTU21D;50070;-32.946;-60.652;2024-01-11T05:31:43;25.90;98.32
63899;HTU21D;50070;-32.946;-60.652;2024-01-11T05:34:10;25.93;98.99
63899;HTU21D;50070;-32.946;-60.652;2024-01-11T05:36:39;25.71;101.50
63899;HTU21D;50070;-32.946;-60.652;2024-01-11T05:39:05;25.92;100.25
63899;HTU21D;50070;-32.946;-60.652;2024-01-11T05:41:32;25.60;102.87
63899;HTU21D;50070;-32.946;-60.652;2024-01-11T05:43:59;25.64;102.76
63899;HTU21D;50070;-32.946;-60.652;2024-01-11T05:46:26;25.59;103.41
63899;HTU21D;50070;-32.946;-60.652;2024-01-11T05:48:52;25.10;103.88
63899;HTU21D;50070;-32.946;-60.652;2024-01-11T05:51:19;25.05;103.56
63899;HTU21D;50070;-32.946;-60.652;2024-01-11T05:53:46;24.87;101.93
63899;HTU21D;50070;-32.946;-60.652;2024-01-11T05:56:13;24.68;100.38
63899;HTU21D;50070;-32.946;-60.652;2024-01-11T05:58:40;24.74;98.83
63899;HTU21D;50070;-32.946;-60.652;2024-01-11T06:01:07;24.46;98.72
63899;HTU21D;50070;-32.946;-60.652;2024-01-11T06:03:33;24.77;96.95
63899;HTU21D;50070;-32.946;-60.652;2024-01-11T06:06:02;24.85;95.05
63899;HTU21D;50070;-32.946;-60.652;2024-01-11T06:08:30;24.87;94.93
63899;HTU21D;50070;-32.946;-60.652;2024-01-11T06:10:57;24.75;95.64
63899;HTU21D;50070;-32.946;-60.652;2024-01-11T06:13:24;24.72;95.33
63899;HTU21D;50070;-32.946;-60.652;2024-01-11T06:15:51;24.79;94.52
63899;HTU21D;50070;-32.946;-60.652;2024-01-11T06:18:17;25.07;93.30
63899;HTU21D;50070;-32.946;-60.652;2024-01-11T06:20:44;25.34;92.19
63899;HTU21D;50070;-32.946;-60.652;2024-01-11T06:23:11;25.14;92.02
63899;HTU21D;50070;-32.946;-60.652;2024-01-11T06:25:38;25.40;89.66
63899;HTU21D;50070;-32.946;-60.652;2024-01-11T06:28:05;25.18;88.96
63899;HTU21D;50070;-32.946;-60.652;2024-01-11T06:30:33;25.50;86.70
63899;HTU21D;50070;-32.946;-60.652;2024-01-11T06:32:59;25.71;85.25
63899;HTU21D;50070;-32.946;-60.652;2024-01-11T06:35:26;25.65;85.28
63899;HTU21D;50070;-32.946;-60.652;2024-01-11T06:37:53;25.75;83.32
63899;HTU21D;50070;-32.946;-60.652;2024-01-11T06:40:20;25.78;82.98
63899;HTU21D;50070;-32.946;-60.652;2024-01-11T06:42:46;25.76;82.97
63899;HTU21D;50070;-32.946;-60.652;2024-01-11T06:45:13;25.86;82.79
63899;HTU21D;50070;-32.946;-60.652;2024-01-11T06:47:40;25.78;83.68
63899;HTU21D;50070;-32.946;-60.652;2024-01-11T06:50:07;25.71;84.59
63899;HTU21D;50070;-32.946;-60.652;2024-01-11T06:52:34;25.96;83.67
63899;HTU21D;50070;-32.946;-60.652;2024-01-11T06:55:01;26.07;81.94
63899;HTU21D;50070;-32.946;-60.652;2024-01-11T06:57:28;25.98;82.76
63899;HTU21D;50070;-32.946;-60.652;2024-01-11T06:59:55;25.99;81.54
63899;HTU21D;50070;-32.946;-60.652;2024-01-11T07:02:22;26.05;81.13
63899;HTU21D;50070;-32.946;-60.652;2024-01-11T07:04:49;25.87;81.99
63899;HTU21D;50070;-32.946;-60.652;2024-01-11T07:07:16;26.03;81.02
63899;HTU21D;50070;-32.946;-60.652;2024-01-11T07:09:43;26.06;77.71
63899;HTU21D;50070;-32.946;-60.652;2024-01-11T07:12:10;26.25;76.53
63899;HTU21D;50070;-32.946;-60.652;2024-01-11T07:14:37;26.37;76.08
63899;HTU21D;50070;-32.946;-60.652;2024-01-11T07:17:04;26.31;74.48
63899;HTU21D;50070;-32.946;-60.652;2024-01-11T07:19:31;26.25;74.66
63899;HTU21D;50070;-32.946;-60.652;2024-01-11T07:21:58;25.93;75.96
63899;HTU21D;50070;-32.946;-60.652;2024-01-11T07:24:25;25.94;74.97
63899;HTU21D;50070;-32.946;-60.652;2024-01-11T07:26:52;25.84;75.79
63899;HTU21D;50070;-32.946;-60.652;2024-01-11T07:29:19;25.96;75.08
63899;HTU21D;50070;-32.946;-60.652;2024-01-11T07:31:46;25.79;76.24
63899;HTU21D;50070;-32.946;-60.652;2024-01-11T07:34:12;25.83;76.42
63899;HTU21D;50070;-32.946;-60.652;2024-01-11T07:36:39;25.65;78.40
63899;HTU21D;50070;-32.946;-60.652;2024-01-11T07:39:05;25.74;78.77
63899;HTU21D;50070;-32.946;-60.652;2024-01-11T07:41:32;25.91;78.91
63899;HTU21D;50070;-32.946;-60.652;2024-01-11T07:43:59;25.97;77.27
63899;HTU21D;50070;-32.946;-60.652;2024-01-11T07:46:26;25.97;77.04
63899;HTU21D;50070;-32.946;-60.652;2024-01-11T07:48:53;26.01;76.67
63899;HTU21D;50070;-32.946;-60.652;2024-01-11T07:51:19;25.77;80.20
63899;HTU21D;50070;-32.946;-60.652;2024-01-11T07:53:46;25.62;82.94
63899;HTU21D;50070;-32.946;-60.652;2024-01-11T07:56:13;25.97;80.30
63899;HTU21D;50070;-32.946;-60.652;2024-01-11T07:58:40;26.03;76.99
63899;HTU21D;50070;-32.946;-60.652;2024-01-11T08:01:08;26.07;77.07
63899;HTU21D;50070;-32.946;-60.652;2024-01-11T08:03:35;26.33;75.71
63899;HTU21D;50070;-32.946;-60.652;2024-01-11T08:06:02;26.45;76.83
63899;HTU21D;50070;-32.946;-60.652;2024-01-11T08:08:29;26.50;77.45
63899;HTU21D;50070;-32.946;-60.652;2024-01-11T08:10:56;26.51;76.66
63899;HTU21D;50070;-32.946;-60.652;2024-01-11T08:13:22;26.50;77.77
63899;HTU21D;50070;-32.946;-60.652;2024-01-11T08:15:50;26.58;74.73
63899;HTU21D;50070;-32.946;-60.652;2024-01-11T08:18:19;26.65;74.10
63899;HTU21D;50070;-32.946;-60.652;2024-01-11T08:20:45;26.64;74.73
63899;HTU21D;50070;-32.946;-60.652;2024-01-11T08:23:12;26.69;74.46
63899;HTU21D;50070;-32.946;-60.652;2024-01-11T08:25:39;26.64;74.95
63899;HTU21D;50070;-32.946;-60.652;2024-01-11T08:28:06;26.39;77.39
63899;HTU21D;50070;-32.946;-60.652;2024-01-11T08:30:33;26.18;79.29
63899;HTU21D;50070;-32.946;-60.652;2024-01-11T08:33:00;25.80;82.68
63899;HTU21D;50070;-32.946;-60.652;2024-01-11T08:35:26;26.13;81.30
63899;HTU21D;50070;-32.946;-60.652;2024-01-11T08:37:53;25.94;84.60
63899;HTU21D;50070;-32.946;-60.652;2024-01-11T08:40:21;25.84;87.67
63899;HTU21D;50070;-32.946;-60.652;2024-01-11T08:42:47;26.05;86.12
63899;HTU21D;50070;-32.946;-60.652;2024-01-11T08:45:14;26.02;86.83
63899;HTU21D;50070;-32.946;-60.652;2024-01-11T08:47:45;26.08;86.32
63899;HTU21D;50070;-32.946;-60.652;2024-01-11T08:50:15;26.15;87.25
63899;HTU21D;50070;-32.946;-60.652;2024-01-11T08:52:43;25.90;94.82
63899;HTU21D;50070;-32.946;-60.652;2024-01-11T08:55:10;25.99;95.73
63899;HTU21D;50070;-32.946;-60.652;2024-01-11T08:57:38;25.72;98.06
63899;HTU21D;50070;-32.946;-60.652;2024-01-11T09:00:05;25.68;98.53
63899;HTU21D;50070;-32.946;-60.652;2024-01-11T09:02:32;25.71;98.94
63899;HTU21D;50070;-32.946;-60.652;2024-01-11T09:04:59;25.65;99.75
63899;HTU21D;50070;-32.946;-60.652;2024-01-11T09:07:26;25.60;101.21
63899;HTU21D;50070;-32.946;-60.652;2024-01-11T09:09:53;25.62;101.04
63899;HTU21D;50070;-32.946;-60.652;2024-01-11T09:12:20;25.56;101.92
63899;HTU21D;50070;-32.946;-60.652;2024-01-11T09:14:47;25.73;100.54
63899;HTU21D;50070;-32.946;-60.652;2024-01-11T09:17:14;25.94;98.96
63899;HTU21D;50070;-32.946;-60.652;2024-01-11T09:19:41;25.64;100.42
63899;HTU21D;50070;-32.946;-60.652;2024-01-11T09:22:08;25.67;100.77
63899;HTU21D;50070;-32.946;-60.652;2024-01-11T09:24:36;25.43;102.33
63899;HTU21D;50070;-32.946;-60.652;2024-01-11T09:27:03;25.83;99.45
63899;HTU21D;50070;-32.946;-60.652;2024-01-11T09:29:32;25.96;98.92
63899;HTU21D;50070;-32.946;-60.652;2024-01-11T09:32:00;25.37;102.97
63899;HTU21D;50070;-32.946;-60.652;2024-01-11T09:34:27;25.23;103.92
63899;HTU21D;50070;-32.946;-60.652;2024-01-11T09:36:54;25.19;103.95
63899;HTU21D;50070;-32.946;-60.652;2024-01-11T09:39:25;25.43;101.99
63899;HTU21D;50070;-32.946;-60.652;2024-01-11T09:42:08;25.04;104.69
63899;HTU21D;50070;-32.946;-60.652;2024-01-11T09:44:38;24.71;105.77
63899;HTU21D;50070;-32.946;-60.652;2024-01-11T09:47:07;25.12;103.59
63899;HTU21D;50070;-32.946;-60.652;2024-01-11T09:49:36;25.32;101.69
63899;HTU21D;50070;-32.946;-60.652;2024-01-11T09:52:05;25.28;101.48
63899;HTU21D;50070;-32.946;-60.652;2024-01-11T09:54:34;24.93;102.49
63899;HTU21D;50070;-32.946;-60.652;2024-01-11T09:57:02;25.25;99.87
63899;HTU21D;50070;-32.946;-60.652;2024-01-11T09:59:30;25.19;98.10
63899;HTU21D;50070;-32.946;-60.652;2024-01-11T10:01:57;25.10;96.53
63899;HTU21D;50070;-32.946;-60.652;2024-01-11T10:04:25;25.22;95.43
63899;HTU21D;50070;-32.946;-60.652;2024-01-11T10:06:52;24.90;95.33
63899;HTU21D;50070;-32.946;-60.652;2024-01-11T10:09:20;24.64;98.06
63899;HTU21D;50070;-32.946;-60.652;2024-01-11T10:11:47;24.73;97.37
63899;HTU21D;50070;-32.946;-60.652;2024-01-11T10:14:15;24.72;97.00
63899;HTU21D;50070;-32.946;-60.652;2024-01-11T10:16:42;24.62;97.57
63899;HTU21D;50070;-32.946;-60.652;2024-01-11T10:19:12;24.95;96.20
63899;HTU21D;50070;-32.946;-60.652;2024-01-11T10:21:41;24.61;98.68
63899;HTU21D;50070;-32.946;-60.652;2024-01-11T10:24:08;24.66;99.42
63899;HTU21D;50070;-32.946;-60.652;2024-01-11T10:26:36;24.35;101.89
63899;HTU21D;50070;-32.946;-60.652;2024-01-11T10:29:02;24.34;102.72
63899;HTU21D;50070;-32.946;-60.652;2024-01-11T10:31:32;24.04;105.18
63899;HTU21D;50070;-32.946;-60.652;2024-01-11T10:34:00;24.02;105.95
63899;HTU21D;50070;-32.946;-60.652;2024-01-11T10:36:31;24.29;104.63
63899;HTU21D;50070;-32.946;-60.652;2024-01-11T10:39:01;24.51;103.63
63899;HTU21D;50070;-32.946;-60.652;2024-01-11T10:41:40;24.58;103.79
63899;HTU21D;50070;-32.946;-60.652;2024-01-11T10:44:18;24.35;105.70
63899;HTU21D;50070;-32.946;-60.652;2024-01-11T10:46:47;24.31;106.85
63899;HTU21D;50070;-32.946;-60.652;2024-01-11T10:49:18;24.69;104.89
63899;HTU21D;50070;-32.946;-60.652;2024-01-11T10:52:00;24.65;105.67
63899;HTU21D;50070;-32.946;-60.652;2024-01-11T10:54:27;24.58;106.63
63899;HTU21D;50070;-32.946;-60.652;2024-01-11T10:56:58;24.57;107.22
63899;HTU21D;50070;-32.946;-60.652;2024-01-11T10:59:27;24.75;106.46
63899;HTU21D;50070;-32.946;-60.652;2024-01-11T11:01:55;25.08;104.91
63899;HTU21D;50070;-32.946;-60.652;2024-01-11T11:04:24;25.17;105.14
63899;HTU21D;50070;-32.946;-60.652;2024-01-11T11:06:55;25.02;106.56
63899;HTU21D;50070;-32.946;-60.652;2024-01-11T11:09:25;25.09;106.64
63899;HTU21D;50070;-32.946;-60.652;2024-01-11T11:11:58;24.84;108.85
63899;HTU21D;50070;-32.946;-60.652;2024-01-11T11:14:28;24.95;108.81
63899;HTU21D;50070;-32.946;-60.652;2024-01-11T11:16:56;25.17;108.13
63899;HTU21D;50070;-32.946;-60.652;2024-01-11T11:19:23;25.45;107.61
63899;HTU21D;50070;-32.946;-60.652;2024-01-11T11:21:50;25.22;109.70
63899;HTU21D;50070;-32.946;-60.652;2024-01-11T11:24:17;25.31;110.22
63899;HTU21D;50070;-32.946;-60.652;2024-01-11T11:26:45;25.54;109.31
63899;HTU21D;50070;-32.946;-60.652;2024-01-11T11:29:11;25.80;108.07
63899;HTU21D;50070;-32.946;-60.652;2024-01-11T11:31:42;25.98;107.14
63899;HTU21D;50070;-32.946;-60.652;2024-01-11T11:34:13;25.94;107.74
63899;HTU21D;50070;-32.946;-60.652;2024-01-11T11:36:41;26.13;106.88
63899;HTU21D;50070;-32.946;-60.652;2024-01-11T11:39:10;26.19;106.76
63899;HTU21D;50070;-32.946;-60.652;2024-01-11T11:41:40;26.22;107.24
63899;HTU21D;50070;-32.946;-60.652;2024-01-11T11:44:12;26.21;107.59
63899;HTU21D;50070;-32.946;-60.652;2024-01-11T11:46:42;26.28;107.68
63899;HTU21D;50070;-32.946;-60.652;2024-01-11T11:49:11;26.78;105.56
63899;HTU21D;50070;-32.946;-60.652;2024-01-11T11:51:39;26.65;106.49
63899;HTU21D;50070;-32.946;-60.652;2024-01-11T11:54:08;26.89;105.21
63899;HTU21D;50070;-32.946;-60.652;2024-01-11T11:56:41;26.91;105.76
63899;HTU21D;50070;-32.946;-60.652;2024-01-11T11:59:09;26.86;106.24
63899;HTU21D;50070;-32.946;-60.652;2024-01-11T12:01:35;27.23;104.87
63899;HTU21D;50070;-32.946;-60.652;2024-01-11T12:04:02;28.04;100.70
63899;HTU21D;50070;-32.946;-60.652;2024-01-11T12:06:29;28.20;99.80
63899;HTU21D;50070;-32.946;-60.652;2024-01-11T12:08:56;28.47;98.66
63899;HTU21D;50070;-32.946;-60.652;2024-01-11T12:11:23;28.79;96.73
63899;HTU21D;50070;-32.946;-60.652;2024-01-11T12:13:50;29.46;91.50
63899;HTU21D;50070;-32.946;-60.652;2024-01-11T12:16:19;28.64;95.79
63899;HTU21D;50070;-32.946;-60.652;2024-01-11T12:18:46;28.61;96.28
63899;HTU21D;50070;-32.946;-60.652;2024-01-11T12:21:12;28.61;95.94
63899;HTU21D;50070;-32.946;-60.652;2024-01-11T12:23:40;28.56;94.88
63899;HTU21D;50070;-32.946;-60.652;2024-01-11T12:26:08;28.24;96.94
63899;HTU21D;50070;-32.946;-60.652;2024-01-11T12:28:39;28.47;93.27
63899;HTU21D;50070;-32.946;-60.652;2024-01-11T12:31:07;28.48;88.90
63899;HTU21D;50070;-32.946;-60.652;2024-01-11T12:33:34;27.90;89.41
63899;HTU21D;50070;-32.946;-60.652;2024-01-11T12:36:05;27.99;87.71
63899;HTU21D;50070;-32.946;-60.652;2024-01-11T12:38:34;27.87;87.21
63899;HTU21D;50070;-32.946;-60.652;2024-01-11T12:41:01;27.46;88.77
63899;HTU21D;50070;-32.946;-60.652;2024-01-11T12:43:28;27.85;86.64
63899;HTU21D;50070;-32.946;-60.652;2024-01-11T12:45:55;28.15;85.42
63899;HTU21D;50070;-32.946;-60.652;2024-01-11T12:48:22;28.28;83.44
63899;HTU21D;50070;-32.946;-60.652;2024-01-11T12:50:51;28.28;82.87
63899;HTU21D;50070;-32.946;-60.652;2024-01-11T12:53:20;28.79;79.08
63899;HTU21D;50070;-32.946;-60.652;2024-01-11T12:56:03;28.54;78.85
63899;HTU21D;50070;-32.946;-60.652;2024-01-11T12:58:34;28.84;76.87
63899;HTU21D;50070;-32.946;-60.652;2024-01-11T13:01:01;28.69;79.41
63899;HTU21D;50070;-32.946;-60.652;2024-01-11T13:03:29;28.90;80.14
63899;HTU21D;50070;-32.946;-60.652;2024-01-11T13:05:59;28.87;79.27
63899;HTU21D;50070;-32.946;-60.652;2024-01-11T13:08:25;28.63;77.53
63899;HTU21D;50070;-32.946;-60.652;2024-01-11T13:10:56;28.40;79.86
63899;HTU21D;50070;-32.946;-60.652;2024-01-11T13:13:23;28.45;80.70
63899;HTU21D;50070;-32.946;-60.652;2024-01-11T13:15:50;28.39;82.01
63899;HTU21D;50070;-32.946;-60.652;2024-01-11T13:18:17;28.69;79.94
63899;HTU21D;50070;-32.946;-60.652;2024-01-11T13:20:44;28.42;79.85
63899;HTU21D;50070;-32.946;-60.652;2024-01-11T13:23:20;28.44;77.29
63899;HTU21D;50070;-32.946;-60.652;2024-01-11T13:25:48;28.60;78.92
63899;HTU21D;50070;-32.946;-60.652;2024-01-11T13:28:16;28.74;79.01
63899;HTU21D;50070;-32.946;-60.652;2024-01-11T13:30:44;28.44;81.03
63899;HTU21D;50070;-32.946;-60.652;2024-01-11T13:33:15;28.68;80.86
63899;HTU21D;50070;-32.946;-60.652;2024-01-11T13:35:43;28.83;79.97
63899;HTU21D;50070;-32.946;-60.652;2024-01-11T13:38:11;28.77;80.11
63899;HTU21D;50070;-32.946;-60.652;2024-01-11T13:40:38;28.93;77.90
63899;HTU21D;50070;-32.946;-60.652;2024-01-11T13:43:06;29.15;75.70
63899;HTU21D;50070;-32.946;-60.652;2024-01-11T13:45:33;28.95;76.54
63899;HTU21D;50070;-32.946;-60.652;2024-01-11T13:48:03;28.87;79.67
63899;HTU21D;50070;-32.946;-60.652;2024-01-11T13:50:30;28.82;82.29
63899;HTU21D;50070;-32.946;-60.652;2024-01-11T13:52:57;28.55;85.42
63899;HTU21D;50070;-32.946;-60.652;2024-01-11T13:55:24;28.47;86.89
63899;HTU21D;50070;-32.946;-60.652;2024-01-11T13:57:51;28.43;84.97
63899;HTU21D;50070;-32.946;-60.652;2024-01-11T14:00:19;28.33;82.87
63899;HTU21D;50070;-32.946;-60.652;2024-01-11T14:02:49;28.65;81.12
63899;HTU21D;50070;-32.946;-60.652;2024-01-11T14:05:16;28.72;81.87
63899;HTU21D;50070;-32.946;-60.652;2024-01-11T14:07:44;28.86;81.68
63899;HTU21D;50070;-32.946;-60.652;2024-01-11T14:10:23;28.72;81.78
63899;HTU21D;50070;-32.946;-60.652;2024-01-11T14:12:50;28.90;81.72
63899;HTU21D;50070;-32.946;-60.652;2024-01-11T14:15:17;28.52;84.29
63899;HTU21D;50070;-32.946;-60.652;2024-01-11T14:17:44;28.55;84.42
63899;HTU21D;50070;-32.946;-60.652;2024-01-11T14:20:11;28.75;83.45
63899;HTU21D;50070;-32.946;-60.652;2024-01-11T14:22:45;28.77;83.26
63899;HTU21D;50070;-32.946;-60.652;2024-01-11T14:25:23;28.72;84.25
63899;HTU21D;50070;-32.946;-60.652;2024-01-11T14:27:55;28.21;86.48
63899;HTU21D;50070;-32.946;-60.652;2024-01-11T14:30:22;28.31;86.61
63899;HTU21D;50070;-32.946;-60.652;2024-01-11T14:32:49;28.53;85.61
63899;HTU21D;50070;-32.946;-60.652;2024-01-11T14:35:16;28.79;84.39